Stockerau, Austria
Current Conditions -  °F | °C
As of 9:50 AM on Sunday 26 Oct 2014 (Local Time) from LOXT Reporting Station
Haze Haze  
Wind Chill: 46°   Ceiling: 1500
Heat Index: 46°   Visibility: 1.2mi
Dew Point: 45°   Wind: 3mph
Humidity: 93%   Direction: 80°E
Pressure: 30.39"   Gusts: NA
Location:  48.39°N, 16.23°E
Report Text: LOXT 260750Z 08003KT 2000 BR FEW006ST SCT010ST OVC015SC 08/07 Q1029 RMK OVC
Loading
Personal Weather Stations






























Interactive Weather Map
Tropical Storm Tracking
New forecast layout! Learn more

10-Day Weather Forecast

Advertisements
Track Severe Weather on mobile